sensor_id;sensor_type;location;lat;lon;timestamp;P1;durP1;ratioP1;P2;durP2;ratioP2
3347;SDS011;1687;49.540;8.574;2023-03-05T00:00:10;20.67;;;9.00;;
3347;SDS011;1687;49.540;8.574;2023-03-05T00:02:37;30.07;;;11.80;;
3347;SDS011;1687;49.540;8.574;2023-03-05T00:05:04;29.40;;;11.77;;
3347;SDS011;1687;49.540;8.574;2023-03-05T00:07:30;26.47;;;11.77;;
3347;SDS011;1687;49.540;8.574;2023-03-05T00:09:57;21.93;;;9.70;;
3347;SDS011;1687;49.540;8.574;2023-03-05T00:12:24;31.90;;;9.47;;
3347;SDS011;1687;49.540;8.574;2023-03-05T00:14:50;25.33;;;11.40;;
3347;SDS011;1687;49.540;8.574;2023-03-05T00:17:16;44.93;;;11.30;;
3347;SDS011;1687;49.540;8.574;2023-03-05T00:19:42;15.53;;;7.90;;
3347;SDS011;1687;49.540;8.574;2023-03-05T00:22:08;26.43;;;10.97;;
3347;SDS011;1687;49.540;8.574;2023-03-05T00:24:33;21.63;;;8.60;;
3347;SDS011;1687;49.540;8.574;2023-03-05T00:26:59;26.57;;;9.30;;
3347;SDS011;1687;49.540;8.574;2023-03-05T00:29:25;28.73;;;10.77;;
3347;SDS011;1687;49.540;8.574;2023-03-05T00:31:52;34.17;;;10.70;;
3347;SDS011;1687;49.540;8.574;2023-03-05T00:34:17;51.27;;;10.00;;
3347;SDS011;1687;49.540;8.574;2023-03-05T00:36:45;30.87;;;9.30;;
3347;SDS011;1687;49.540;8.574;2023-03-05T00:39:16;31.83;;;10.17;;
3347;SDS011;1687;49.540;8.574;2023-03-05T00:41:43;23.00;;;9.90;;
3347;SDS011;1687;49.540;8.574;2023-03-05T00:44:09;40.13;;;13.27;;
3347;SDS011;1687;49.540;8.574;2023-03-05T00:46:35;55.03;;;9.83;;
3347;SDS011;1687;49.540;8.574;2023-03-05T00:49:01;50.77;;;12.53;;
3347;SDS011;1687;49.540;8.574;2023-03-05T00:51:27;25.00;;;10.17;;
3347;SDS011;1687;49.540;8.574;2023-03-05T00:53:53;20.33;;;9.47;;
3347;SDS011;1687;49.540;8.574;2023-03-05T00:56:19;21.07;;;10.77;;
3347;SDS011;1687;49.540;8.574;2023-03-05T00:58:45;37.63;;;9.80;;
3347;SDS011;1687;49.540;8.574;2023-03-05T01:01:11;23.77;;;8.77;;
3347;SDS011;1687;49.540;8.574;2023-03-05T01:03:37;18.10;;;8.60;;
3347;SDS011;1687;49.540;8.574;2023-03-05T01:06:04;22.97;;;8.50;;
3347;SDS011;1687;49.540;8.574;2023-03-05T01:08:34;20.90;;;9.67;;
3347;SDS011;1687;49.540;8.574;2023-03-05T01:11:00;31.93;;;10.07;;
3347;SDS011;1687;49.540;8.574;2023-03-05T01:13:27;21.93;;;9.23;;
3347;SDS011;1687;49.540;8.574;2023-03-05T01:15:53;38.27;;;11.33;;
3347;SDS011;1687;49.540;8.574;2023-03-05T01:18:18;30.80;;;11.30;;
3347;SDS011;1687;49.540;8.574;2023-03-05T01:20:44;26.77;;;9.50;;
3347;SDS011;1687;49.540;8.574;2023-03-05T01:23:10;30.37;;;12.40;;
3347;SDS011;1687;49.540;8.574;2023-03-05T01:25:36;30.53;;;9.80;;
3347;SDS011;1687;49.540;8.574;2023-03-05T01:28:02;27.07;;;8.50;;
3347;SDS011;1687;49.540;8.574;2023-03-05T01:30:28;28.17;;;10.00;;
3347;SDS011;1687;49.540;8.574;2023-03-05T01:32:54;32.43;;;10.33;;
3347;SDS011;1687;49.540;8.574;2023-03-05T01:35:20;27.87;;;10.20;;
3347;SDS011;1687;49.540;8.574;2023-03-05T01:37:48;32.53;;;9.40;;
3347;SDS011;1687;49.540;8.574;2023-03-05T01:40:15;37.13;;;12.17;;
3347;SDS011;1687;49.540;8.574;2023-03-05T01:42:46;21.13;;;9.67;;
3347;SDS011;1687;49.540;8.574;2023-03-05T01:45:16;25.73;;;9.70;;
3347;SDS011;1687;49.540;8.574;2023-03-05T01:47:42;27.27;;;9.70;;
3347;SDS011;1687;49.540;8.574;2023-03-05T01:50:18;25.50;;;9.60;;
3347;SDS011;1687;49.540;8.574;2023-03-05T01:52:48;26.87;;;10.30;;
3347;SDS011;1687;49.540;8.574;2023-03-05T01:55:22;18.87;;;7.97;;
3347;SDS011;1687;49.540;8.574;2023-03-05T01:57:51;21.43;;;8.70;;
3347;SDS011;1687;49.540;8.574;2023-03-05T02:00:28;23.60;;;6.97;;
3347;SDS011;1687;49.540;8.574;2023-03-05T02:03:04;27.93;;;7.43;;
3347;SDS011;1687;49.540;8.574;2023-03-05T02:05:33;30.47;;;10.20;;
3347;SDS011;1687;49.540;8.574;2023-03-05T02:08:03;24.33;;;9.87;;
3347;SDS011;1687;49.540;8.574;2023-03-05T02:10:33;36.20;;;12.10;;
3347;SDS011;1687;49.540;8.574;2023-03-05T02:13:12;31.07;;;9.33;;
3347;SDS011;1687;49.540;8.574;2023-03-05T02:15:43;27.03;;;10.73;;
3347;SDS011;1687;49.540;8.574;2023-03-05T02:18:09;30.10;;;11.10;;
3347;SDS011;1687;49.540;8.574;2023-03-05T02:23:26;32.60;;;11.70;;
3347;SDS011;1687;49.540;8.574;2023-03-05T02:25:57;19.80;;;8.40;;
3347;SDS011;1687;49.540;8.574;2023-03-05T02:31:01;33.90;;;10.30;;
3347;SDS011;1687;49.540;8.574;2023-03-05T02:33:44;18.50;;;8.63;;
3347;SDS011;1687;49.540;8.574;2023-03-05T02:36:11;22.17;;;8.57;;
3347;SDS011;1687;49.540;8.574;2023-03-05T02:38:38;25.77;;;9.50;;
3347;SDS011;1687;49.540;8.574;2023-03-05T02:41:05;15.67;;;7.63;;
3347;SDS011;1687;49.540;8.574;2023-03-05T02:43:31;34.10;;;8.37;;
3347;SDS011;1687;49.540;8.574;2023-03-05T02:45:56;34.03;;;8.70;;
3347;SDS011;1687;49.540;8.574;2023-03-05T02:48:22;26.43;;;9.13;;
3347;SDS011;1687;49.540;8.574;2023-03-05T02:50:48;30.40;;;11.00;;
3347;SDS011;1687;49.540;8.574;2023-03-05T02:53:14;29.43;;;10.20;;
3347;SDS011;1687;49.540;8.574;2023-03-05T02:55:40;31.73;;;10.43;;
3347;SDS011;1687;49.540;8.574;2023-03-05T02:58:05;23.17;;;10.77;;
3347;SDS011;1687;49.540;8.574;2023-03-05T03:00:31;27.40;;;9.33;;
3347;SDS011;1687;49.540;8.574;2023-03-05T03:02:57;21.73;;;10.63;;
3347;SDS011;1687;49.540;8.574;2023-03-05T03:05:23;27.93;;;12.40;;
3347;SDS011;1687;49.540;8.574;2023-03-05T03:07:49;35.37;;;8.10;;
3347;SDS011;1687;49.540;8.574;2023-03-05T03:10:16;20.00;;;8.77;;
3347;SDS011;1687;49.540;8.574;2023-03-05T03:12:43;29.37;;;10.37;;
3347;SDS011;1687;49.540;8.574;2023-03-05T03:15:10;40.83;;;14.83;;
3347;SDS011;1687;49.540;8.574;2023-03-05T03:17:39;35.37;;;11.43;;
3347;SDS011;1687;49.540;8.574;2023-03-05T03:20:06;16.50;;;8.80;;
3347;SDS011;1687;49.540;8.574;2023-03-05T03:22:38;36.90;;;11.60;;
3347;SDS011;1687;49.540;8.574;2023-03-05T03:25:04;31.93;;;9.97;;
3347;SDS011;1687;49.540;8.574;2023-03-05T03:27:30;30.70;;;11.37;;
3347;SDS011;1687;49.540;8.574;2023-03-05T03:29:56;19.93;;;7.90;;
3347;SDS011;1687;49.540;8.574;2023-03-05T03:32:26;32.57;;;11.53;;
3347;SDS011;1687;49.540;8.574;2023-03-05T03:34:53;26.83;;;10.27;;
3347;SDS011;1687;49.540;8.574;2023-03-05T03:37:18;23.53;;;9.40;;
3347;SDS011;1687;49.540;8.574;2023-03-05T03:39:44;33.27;;;10.67;;
3347;SDS011;1687;49.540;8.574;2023-03-05T03:42:10;26.13;;;11.70;;
3347;SDS011;1687;49.540;8.574;2023-03-05T03:44:35;28.60;;;12.97;;
3347;SDS011;1687;49.540;8.574;2023-03-05T03:47:01;25.67;;;12.63;;
3347;SDS011;1687;49.540;8.574;2023-03-05T03:49:27;29.70;;;11.90;;
3347;SDS011;1687;49.540;8.574;2023-03-05T03:51:53;35.70;;;13.10;;
3347;SDS011;1687;49.540;8.574;2023-03-05T03:54:19;21.90;;;10.70;;
3347;SDS011;1687;49.540;8.574;2023-03-05T03:56:46;30.33;;;11.70;;
3347;SDS011;1687;49.540;8.574;2023-03-05T03:59:12;30.70;;;12.20;;
3347;SDS011;1687;49.540;8.574;2023-03-05T04:01:38;28.57;;;9.77;;
3347;SDS011;1687;49.540;8.574;2023-03-05T04:04:05;23.43;;;10.20;;
3347;SDS011;1687;49.540;8.574;2023-03-05T04:06:31;43.77;;;10.83;;
3347;SDS011;1687;49.540;8.574;2023-03-05T04:08:57;26.00;;;8.60;;
3347;SDS011;1687;49.540;8.574;2023-03-05T04:11:23;31.30;;;10.60;;
3347;SDS011;1687;49.540;8.574;2023-03-05T04:13:49;48.57;;;13.93;;
3347;SDS011;1687;49.540;8.574;2023-03-05T04:16:15;26.67;;;9.73;;
3347;SDS011;1687;49.540;8.574;2023-03-05T04:18:41;34.23;;;11.33;;
3347;SDS011;1687;49.540;8.574;2023-03-05T04:21:08;32.77;;;11.80;;
3347;SDS011;1687;49.540;8.574;2023-03-05T04:23:34;31.07;;;11.80;;
3347;SDS011;1687;49.540;8.574;2023-03-05T04:25:59;37.77;;;10.80;;
3347;SDS011;1687;49.540;8.574;2023-03-05T04:28:25;20.50;;;8.37;;
3347;SDS011;1687;49.540;8.574;2023-03-05T04:30:51;28.13;;;11.30;;
3347;SDS011;1687;49.540;8.574;2023-03-05T04:33:17;21.37;;;7.73;;
3347;SDS011;1687;49.540;8.574;2023-03-05T04:35:43;28.63;;;11.37;;
3347;SDS011;1687;49.540;8.574;2023-03-05T04:38:09;40.13;;;11.83;;
3347;SDS011;1687;49.540;8.574;2023-03-05T04:40:35;29.10;;;9.40;;
3347;SDS011;1687;49.540;8.574;2023-03-05T04:43:01;22.27;;;10.10;;
3347;SDS011;1687;49.540;8.574;2023-03-05T04:45:28;36.60;;;11.10;;
3347;SDS011;1687;49.540;8.574;2023-03-05T04:47:54;27.37;;;11.33;;
3347;SDS011;1687;49.540;8.574;2023-03-05T04:50:20;30.60;;;11.33;;
3347;SDS011;1687;49.540;8.574;2023-03-05T04:52:45;24.10;;;9.47;;
3347;SDS011;1687;49.540;8.574;2023-03-05T04:55:12;35.20;;;10.97;;
3347;SDS011;1687;49.540;8.574;2023-03-05T04:57:39;38.83;;;14.43;;
3347;SDS011;1687;49.540;8.574;2023-03-05T05:00:06;22.27;;;9.43;;
3347;SDS011;1687;49.540;8.574;2023-03-05T05:02:39;24.20;;;11.10;;
3347;SDS011;1687;49.540;8.574;2023-03-05T05:05:11;15.23;;;8.53;;
3347;SDS011;1687;49.540;8.574;2023-03-05T05:07:40;28.20;;;9.50;;
3347;SDS011;1687;49.540;8.574;2023-03-05T05:10:06;32.23;;;9.90;;
3347;SDS011;1687;49.540;8.574;2023-03-05T05:12:33;30.23;;;10.60;;
3347;SDS011;1687;49.540;8.574;2023-03-05T05:14:59;19.13;;;9.50;;
3347;SDS011;1687;49.540;8.574;2023-03-05T05:17:26;24.73;;;10.83;;
3347;SDS011;1687;49.540;8.574;2023-03-05T05:19:54;22.20;;;10.90;;
3347;SDS011;1687;49.540;8.574;2023-03-05T05:22:21;31.80;;;10.03;;
3347;SDS011;1687;49.540;8.574;2023-03-05T05:24:47;23.70;;;11.10;;
3347;SDS011;1687;49.540;8.574;2023-03-05T05:27:12;23.47;;;10.53;;
3347;SDS011;1687;49.540;8.574;2023-03-05T05:29:38;23.67;;;9.67;;
3347;SDS011;1687;49.540;8.574;2023-03-05T05:32:04;38.57;;;11.10;;
3347;SDS011;1687;49.540;8.574;2023-03-05T05:34:30;26.60;;;11.37;;
3347;SDS011;1687;49.540;8.574;2023-03-05T05:36:55;30.77;;;10.90;;
3347;SDS011;1687;49.540;8.574;2023-03-05T05:39:21;27.97;;;11.90;;
3347;SDS011;1687;49.540;8.574;2023-03-05T05:41:50;24.40;;;8.27;;
3347;SDS011;1687;49.540;8.574;2023-03-05T05:44:17;28.07;;;9.40;;
3347;SDS011;1687;49.540;8.574;2023-03-05T05:46:42;29.57;;;11.67;;
3347;SDS011;1687;49.540;8.574;2023-03-05T05:49:08;26.60;;;11.33;;
3347;SDS011;1687;49.540;8.574;2023-03-05T05:51:34;25.83;;;10.37;;
3347;SDS011;1687;49.540;8.574;2023-03-05T05:53:59;29.23;;;10.30;;
3347;SDS011;1687;49.540;8.574;2023-03-05T05:56:25;26.63;;;8.90;;
3347;SDS011;1687;49.540;8.574;2023-03-05T05:58:51;32.23;;;12.20;;
3347;SDS011;1687;49.540;8.574;2023-03-05T06:03:49;20.90;;;9.40;;
3347;SDS011;1687;49.540;8.574;2023-03-05T06:06:15;29.57;;;11.20;;
3347;SDS011;1687;49.540;8.574;2023-03-05T06:08:44;21.27;;;8.23;;
3347;SDS011;1687;49.540;8.574;2023-03-05T06:11:10;25.10;;;10.43;;
3347;SDS011;1687;49.540;8.574;2023-03-05T06:13:36;26.63;;;9.00;;
3347;SDS011;1687;49.540;8.574;2023-03-05T06:16:03;33.70;;;11.50;;
3347;SDS011;1687;49.540;8.574;2023-03-05T06:18:34;25.40;;;10.60;;
3347;SDS011;1687;49.540;8.574;2023-03-05T06:21:00;44.50;;;11.17;;
3347;SDS011;1687;49.540;8.574;2023-03-05T06:23:32;23.87;;;8.37;;
3347;SDS011;1687;49.540;8.574;2023-03-05T06:25:58;32.23;;;11.63;;
3347;SDS011;1687;49.540;8.574;2023-03-05T06:28:26;30.23;;;10.67;;
3347;SDS011;1687;49.540;8.574;2023-03-05T06:31:03;30.10;;;11.67;;
3347;SDS011;1687;49.540;8.574;2023-03-05T06:33:34;32.53;;;12.53;;
3347;SDS011;1687;49.540;8.574;2023-03-05T06:36:04;26.67;;;11.80;;
3347;SDS011;1687;49.540;8.574;2023-03-05T06:38:32;27.43;;;11.67;;
3347;SDS011;1687;49.540;8.574;2023-03-05T06:41:17;34.67;;;10.70;;
3347;SDS011;1687;49.540;8.574;2023-03-05T06:43:46;21.03;;;10.07;;
3347;SDS011;1687;49.540;8.574;2023-03-05T06:46:14;28.10;;;10.87;;
3347;SDS011;1687;49.540;8.574;2023-03-05T06:48:46;26.23;;;10.93;;
3347;SDS011;1687;49.540;8.574;2023-03-05T06:51:13;33.50;;;14.67;;
3347;SDS011;1687;49.540;8.574;2023-03-05T06:53:42;39.23;;;12.53;;
3347;SDS011;1687;49.540;8.574;2023-03-05T06:56:09;38.50;;;12.00;;
3347;SDS011;1687;49.540;8.574;2023-03-05T06:58:35;21.43;;;9.10;;
3347;SDS011;1687;49.540;8.574;2023-03-05T07:01:03;32.80;;;11.60;;
3347;SDS011;1687;49.540;8.574;2023-03-05T07:03:31;24.77;;;11.30;;
3347;SDS011;1687;49.540;8.574;2023-03-05T07:05:58;28.90;;;11.40;;
3347;SDS011;1687;49.540;8.574;2023-03-05T07:08:26;25.43;;;11.80;;
3347;SDS011;1687;49.540;8.574;2023-03-05T07:10:52;29.30;;;12.60;;
3347;SDS011;1687;49.540;8.574;2023-03-05T07:13:18;39.70;;;10.67;;
3347;SDS011;1687;49.540;8.574;2023-03-05T07:15:43;26.53;;;11.30;;
3347;SDS011;1687;49.540;8.574;2023-03-05T07:18:09;16.53;;;8.40;;
3347;SDS011;1687;49.540;8.574;2023-03-05T07:20:35;19.23;;;8.90;;
3347;SDS011;1687;49.540;8.574;2023-03-05T07:23:01;19.73;;;7.47;;
3347;SDS011;1687;49.540;8.574;2023-03-05T07:25:27;34.57;;;13.87;;
3347;SDS011;1687;49.540;8.574;2023-03-05T07:27:53;68.57;;;19.90;;
3347;SDS011;1687;49.540;8.574;2023-03-05T07:30:18;34.50;;;13.43;;
3347;SDS011;1687;49.540;8.574;2023-03-05T07:32:44;18.10;;;7.80;;
3347;SDS011;1687;49.540;8.574;2023-03-05T07:35:10;24.40;;;10.03;;
3347;SDS011;1687;49.540;8.574;2023-03-05T07:37:36;13.57;;;7.50;;
3347;SDS011;1687;49.540;8.574;2023-03-05T07:40:02;19.83;;;9.33;;
3347;SDS011;1687;49.540;8.574;2023-03-05T07:42:29;17.00;;;6.83;;
3347;SDS011;1687;49.540;8.574;2023-03-05T07:44:55;19.57;;;9.67;;
3347;SDS011;1687;49.540;8.574;2023-03-05T07:47:21;17.27;;;6.40;;
3347;SDS011;1687;49.540;8.574;2023-03-05T07:49:47;22.23;;;9.17;;
3347;SDS011;1687;49.540;8.574;2023-03-05T07:52:13;20.20;;;8.33;;
3347;SDS011;1687;49.540;8.574;2023-03-05T07:54:39;33.40;;;7.30;;
3347;SDS011;1687;49.540;8.574;2023-03-05T07:57:06;16.67;;;7.77;;
3347;SDS011;1687;49.540;8.574;2023-03-05T07:59:32;15.07;;;7.97;;
3347;SDS011;1687;49.540;8.574;2023-03-05T08:02:00;17.37;;;7.33;;
3347;SDS011;1687;49.540;8.574;2023-03-05T08:04:26;26.90;;;11.37;;
3347;SDS011;1687;49.540;8.574;2023-03-05T08:06:52;25.43;;;9.03;;
3347;SDS011;1687;49.540;8.574;2023-03-05T08:09:17;19.73;;;6.90;;
3347;SDS011;1687;49.540;8.574;2023-03-05T08:11:44;14.27;;;7.53;;
3347;SDS011;1687;49.540;8.574;2023-03-05T08:14:10;17.97;;;8.10;;
3347;SDS011;1687;49.540;8.574;2023-03-05T08:16:37;22.83;;;8.73;;
3347;SDS011;1687;49.540;8.574;2023-03-05T08:19:04;20.53;;;6.90;;
3347;SDS011;1687;49.540;8.574;2023-03-05T08:21:32;28.40;;;7.30;;
3347;SDS011;1687;49.540;8.574;2023-03-05T08:24:01;26.33;;;7.40;;
3347;SDS011;1687;49.540;8.574;2023-03-05T08:26:31;25.47;;;8.23;;
3347;SDS011;1687;49.540;8.574;2023-03-05T08:28:59;19.57;;;7.23;;
3347;SDS011;1687;49.540;8.574;2023-03-05T08:31:25;17.40;;;5.30;;
3347;SDS011;1687;49.540;8.574;2023-03-05T08:33:52;17.53;;;6.63;;
3347;SDS011;1687;49.540;8.574;2023-03-05T08:36:20;18.43;;;9.20;;
3347;SDS011;1687;49.540;8.574;2023-03-05T08:38:46;14.07;;;6.03;;
3347;SDS011;1687;49.540;8.574;2023-03-05T08:41:12;13.13;;;6.57;;
3347;SDS011;1687;49.540;8.574;2023-03-05T08:43:39;18.10;;;6.90;;
3347;SDS011;1687;49.540;8.574;2023-03-05T08:46:05;17.90;;;5.80;;
3347;SDS011;1687;49.540;8.574;2023-03-05T08:48:31;15.83;;;6.40;;
3347;SDS011;1687;49.540;8.574;2023-03-05T08:51:05;10.37;;;4.70;;
3347;SDS011;1687;49.540;8.574;2023-03-05T08:53:33;16.60;;;6.40;;
3347;SDS011;1687;49.540;8.574;2023-03-05T08:55:59;16.00;;;6.10;;
3347;SDS011;1687;49.540;8.574;2023-03-05T08:58:25;18.43;;;6.33;;
3347;SDS011;1687;49.540;8.574;2023-03-05T09:00:51;18.03;;;6.50;;
3347;SDS011;1687;49.540;8.574;2023-03-05T09:03:16;13.20;;;6.33;;
3347;SDS011;1687;49.540;8.574;2023-03-05T09:05:43;13.73;;;6.50;;
3347;SDS011;1687;49.540;8.574;2023-03-05T09:08:09;15.37;;;5.43;;
3347;SDS011;1687;49.540;8.574;2023-03-05T09:10:35;10.87;;;3.93;;
3347;SDS011;1687;49.540;8.574;2023-03-05T09:13:01;23.93;;;7.20;;
3347;SDS011;1687;49.540;8.574;2023-03-05T09:15:28;7.87;;;3.70;;
3347;SDS011;1687;49.540;8.574;2023-03-05T09:17:54;17.97;;;4.90;;
3347;SDS011;1687;49.540;8.574;2023-03-05T09:20:20;6.20;;;2.90;;
3347;SDS011;1687;49.540;8.574;2023-03-05T09:22:46;12.87;;;4.43;;
3347;SDS011;1687;49.540;8.574;2023-03-05T09:25:12;8.30;;;4.13;;
3347;SDS011;1687;49.540;8.574;2023-03-05T09:27:37;11.07;;;4.60;;
3347;SDS011;1687;49.540;8.574;2023-03-05T09:30:04;7.73;;;2.57;;
3347;SDS011;1687;49.540;8.574;2023-03-05T09:32:31;7.07;;;3.23;;
3347;SDS011;1687;49.540;8.574;2023-03-05T09:34:57;7.33;;;2.80;;
3347;SDS011;1687;49.540;8.574;2023-03-05T09:37:23;8.40;;;3.47;;
3347;SDS011;1687;49.540;8.574;2023-03-05T09:39:48;10.00;;;2.70;;
3347;SDS011;1687;49.540;8.574;2023-03-05T09:45:55;10.73;;;3.07;;
3347;SDS011;1687;49.540;8.574;2023-03-05T09:51:16;12.23;;;4.23;;
3347;SDS011;1687;49.540;8.574;2023-03-05T09:56:31;6.63;;;2.70;;
3347;SDS011;1687;49.540;8.574;2023-03-05T09:59:46;4.00;;;2.13;;
3347;SDS011;1687;49.540;8.574;2023-03-05T10:01:56;14.90;;;3.33;;
3347;SDS011;1687;49.540;8.574;2023-03-05T10:04:31;11.63;;;2.23;;
3347;SDS011;1687;49.540;8.574;2023-03-05T10:09:58;9.63;;;3.83;;
3347;SDS011;1687;49.540;8.574;2023-03-05T10:12:39;7.43;;;2.80;;
3347;SDS011;1687;49.540;8.574;2023-03-05T10:21:14;17.53;;;3.90;;
3347;SDS011;1687;49.540;8.574;2023-03-05T10:23:59;10.93;;;2.40;;
3347;SDS011;1687;49.540;8.574;2023-03-05T10:27:05;7.13;;;2.67;;
3347;SDS011;1687;49.540;8.574;2023-03-05T10:29:48;5.30;;;2.50;;
3347;SDS011;1687;49.540;8.574;2023-03-05T10:40:55;8.00;;;3.13;;
3347;SDS011;1687;49.540;8.574;2023-03-05T10:43:34;9.03;;;3.70;;
3347;SDS011;1687;49.540;8.574;2023-03-05T10:46:03;8.23;;;3.07;;
3347;SDS011;1687;49.540;8.574;2023-03-05T10:51:04;7.27;;;3.13;;
3347;SDS011;1687;49.540;8.574;2023-03-05T10:56:18;7.90;;;2.80;;
3347;SDS011;1687;49.540;8.574;2023-03-05T10:58:48;6.20;;;3.40;;
3347;SDS011;1687;49.540;8.574;2023-03-05T11:03:56;7.07;;;2.20;;
3347;SDS011;1687;49.540;8.574;2023-03-05T11:06:30;4.97;;;2.23;;
3347;SDS011;1687;49.540;8.574;2023-03-05T11:11:44;7.40;;;2.93;;
3347;SDS011;1687;49.540;8.574;2023-03-05T11:14:27;7.40;;;3.53;;
3347;SDS011;1687;49.540;8.574;2023-03-05T11:16:57;6.57;;;2.93;;
3347;SDS011;1687;49.540;8.574;2023-03-05T11:30:18;9.60;;;2.70;;
3347;SDS011;1687;49.540;8.574;2023-03-05T11:33:02;6.50;;;2.50;;
3347;SDS011;1687;49.540;8.574;2023-03-05T11:35:47;10.93;;;2.90;;
3347;SDS011;1687;49.540;8.574;2023-03-05T11:38:20;5.60;;;2.30;;
3347;SDS011;1687;49.540;8.574;2023-03-05T11:40:52;11.77;;;2.73;;
3347;SDS011;1687;49.540;8.574;2023-03-05T11:43:21;4.50;;;2.27;;
3347;SDS011;1687;49.540;8.574;2023-03-05T11:45:50;8.53;;;3.60;;
3347;SDS011;1687;49.540;8.574;2023-03-05T11:48:31;7.00;;;3.70;;
3347;SDS011;1687;49.540;8.574;2023-03-05T11:51:02;7.07;;;2.60;;
3347;SDS011;1687;49.540;8.574;2023-03-05T11:53:37;5.70;;;2.30;;
3347;SDS011;1687;49.540;8.574;2023-03-05T11:56:19;12.73;;;3.10;;
3347;SDS011;1687;49.540;8.574;2023-03-05T12:01:44;6.33;;;2.27;;
3347;SDS011;1687;49.540;8.574;2023-03-05T12:04:14;5.60;;;2.97;;
3347;SDS011;1687;49.540;8.574;2023-03-05T12:06:45;6.27;;;3.37;;
3347;SDS011;1687;49.540;8.574;2023-03-05T12:20:51;8.33;;;2.73;;
3347;SDS011;1687;49.540;8.574;2023-03-05T12:23:52;9.10;;;2.80;;
3347;SDS011;1687;49.540;8.574;2023-03-05T12:32:04;8.07;;;3.40;;
3347;SDS011;1687;49.540;8.574;2023-03-05T12:34:56;8.93;;;3.33;;
3347;SDS011;1687;49.540;8.574;2023-03-05T12:40:22;8.73;;;3.13;;
3347;SDS011;1687;49.540;8.574;2023-03-05T12:42:55;5.43;;;2.60;;
3347;SDS011;1687;49.540;8.574;2023-03-05T12:45:36;7.17;;;3.00;;
3347;SDS011;1687;49.540;8.574;2023-03-05T12:53:11;7.33;;;2.90;;
3347;SDS011;1687;49.540;8.574;2023-03-05T13:03:36;6.90;;;2.33;;
3347;SDS011;1687;49.540;8.574;2023-03-05T13:11:55;9.03;;;2.80;;
3347;SDS011;1687;49.540;8.574;2023-03-05T13:17:28;8.27;;;3.53;;
3347;SDS011;1687;49.540;8.574;2023-03-05T13:20:00;13.97;;;3.53;;
3347;SDS011;1687;49.540;8.574;2023-03-05T13:22:53;14.10;;;3.40;;
3347;SDS011;1687;49.540;8.574;2023-03-05T13:28:42;7.60;;;2.50;;
3347;SDS011;1687;49.540;8.574;2023-03-05T13:31:13;14.93;;;3.17;;
3347;SDS011;1687;49.540;8.574;2023-03-05T13:33:52;9.70;;;2.90;;
3347;SDS011;1687;49.540;8.574;2023-03-05T13:36:23;4.93;;;3.37;;
3347;SDS011;1687;49.540;8.574;2023-03-05T13:38:50;9.07;;;2.57;;
3347;SDS011;1687;49.540;8.574;2023-03-05T13:43:49;6.20;;;2.80;;
3347;SDS011;1687;49.540;8.574;2023-03-05T13:46:24;5.10;;;2.47;;
3347;SDS011;1687;49.540;8.574;2023-03-05T13:51:52;12.27;;;2.30;;
3347;SDS011;1687;49.540;8.574;2023-03-05T13:54:21;9.37;;;3.20;;
3347;SDS011;1687;49.540;8.574;2023-03-05T13:59:57;10.20;;;2.90;;
3347;SDS011;1687;49.540;8.574;2023-03-05T14:02:24;8.63;;;3.20;;
3347;SDS011;1687;49.540;8.574;2023-03-05T14:04:53;7.37;;;2.83;;
3347;SDS011;1687;49.540;8.574;2023-03-05T14:09:45;5.63;;;3.33;;
3347;SDS011;1687;49.540;8.574;2023-03-05T14:14:59;6.50;;;2.60;;
3347;SDS011;1687;49.540;8.574;2023-03-05T14:17:35;6.47;;;2.27;;
3347;SDS011;1687;49.540;8.574;2023-03-05T14:22:38;8.07;;;3.50;;
3347;SDS011;1687;49.540;8.574;2023-03-05T14:25:24;8.00;;;2.30;;
3347;SDS011;1687;49.540;8.574;2023-03-05T14:28:03;8.30;;;4.10;;
3347;SDS011;1687;49.540;8.574;2023-03-05T14:30:32;10.50;;;4.93;;
3347;SDS011;1687;49.540;8.574;2023-03-05T14:33:00;7.40;;;2.80;;
3347;SDS011;1687;49.540;8.574;2023-03-05T14:35:27;15.70;;;2.97;;
3347;SDS011;1687;49.540;8.574;2023-03-05T14:37:54;3.87;;;2.13;;
3347;SDS011;1687;49.540;8.574;2023-03-05T14:40:27;4.97;;;2.53;;
3347;SDS011;1687;49.540;8.574;2023-03-05T14:43:02;7.70;;;3.10;;
3347;SDS011;1687;49.540;8.574;2023-03-05T14:47:58;7.53;;;3.40;;
3347;SDS011;1687;49.540;8.574;2023-03-05T14:50:27;9.30;;;3.70;;
3347;SDS011;1687;49.540;8.574;2023-03-05T14:53:06;7.60;;;2.60;;
3347;SDS011;1687;49.540;8.574;2023-03-05T14:55:37;9.53;;;2.87;;
3347;SDS011;1687;49.540;8.574;2023-03-05T14:58:11;12.90;;;3.90;;
3347;SDS011;1687;49.540;8.574;2023-03-05T15:00:40;5.40;;;2.50;;
3347;SDS011;1687;49.540;8.574;2023-03-05T15:03:08;11.10;;;2.53;;
3347;SDS011;1687;49.540;8.574;2023-03-05T15:05:36;11.90;;;3.10;;
3347;SDS011;1687;49.540;8.574;2023-03-05T15:08:02;8.30;;;3.10;;
3347;SDS011;1687;49.540;8.574;2023-03-05T15:10:29;8.57;;;2.53;;
3347;SDS011;1687;49.540;8.574;2023-03-05T15:12:54;8.63;;;3.00;;
3347;SDS011;1687;49.540;8.574;2023-03-05T15:15:20;7.10;;;2.20;;
3347;SDS011;1687;49.540;8.574;2023-03-05T15:17:47;6.57;;;3.17;;
3347;SDS011;1687;49.540;8.574;2023-03-05T15:20:20;8.53;;;3.53;;
3347;SDS011;1687;49.540;8.574;2023-03-05T15:22:52;7.03;;;3.93;;
3347;SDS011;1687;49.540;8.574;2023-03-05T15:25:19;14.73;;;4.80;;
3347;SDS011;1687;49.540;8.574;2023-03-05T15:27:46;10.00;;;3.00;;
3347;SDS011;1687;49.540;8.574;2023-03-05T15:30:26;4.50;;;2.57;;
3347;SDS011;1687;49.540;8.574;2023-03-05T15:32:55;6.10;;;2.70;;
3347;SDS011;1687;49.540;8.574;2023-03-05T15:35:24;6.37;;;2.50;;
3347;SDS011;1687;49.540;8.574;2023-03-05T15:37:50;7.27;;;2.30;;
3347;SDS011;1687;49.540;8.574;2023-03-05T15:40:18;4.30;;;2.43;;
3347;SDS011;1687;49.540;8.574;2023-03-05T15:42:45;10.80;;;4.53;;
3347;SDS011;1687;49.540;8.574;2023-03-05T15:45:11;7.00;;;2.50;;
3347;SDS011;1687;49.540;8.574;2023-03-05T15:47:39;6.60;;;3.47;;
3347;SDS011;1687;49.540;8.574;2023-03-05T15:50:05;5.70;;;2.67;;
3347;SDS011;1687;49.540;8.574;2023-03-05T15:52:32;6.07;;;2.23;;
3347;SDS011;1687;49.540;8.574;2023-03-05T15:54:58;6.30;;;2.97;;
3347;SDS011;1687;49.540;8.574;2023-03-05T15:57:25;4.83;;;1.97;;
3347;SDS011;1687;49.540;8.574;2023-03-05T15:59:50;6.53;;;2.43;;
3347;SDS011;1687;49.540;8.574;2023-03-05T16:02:18;3.13;;;1.60;;
3347;SDS011;1687;49.540;8.574;2023-03-05T16:04:44;6.07;;;2.30;;
3347;SDS011;1687;49.540;8.574;2023-03-05T16:07:10;8.73;;;3.80;;
3347;SDS011;1687;49.540;8.574;2023-03-05T16:09:39;9.20;;;3.90;;
3347;SDS011;1687;49.540;8.574;2023-03-05T16:12:11;7.13;;;3.67;;
3347;SDS011;1687;49.540;8.574;2023-03-05T16:14:42;5.00;;;2.67;;
3347;SDS011;1687;49.540;8.574;2023-03-05T16:17:08;10.43;;;3.17;;
3347;SDS011;1687;49.540;8.574;2023-03-05T16:19:36;7.20;;;3.83;;
3347;SDS011;1687;49.540;8.574;2023-03-05T16:22:06;6.20;;;2.80;;
3347;SDS011;1687;49.540;8.574;2023-03-05T16:24:32;5.57;;;3.10;;
3347;SDS011;1687;49.540;8.574;2023-03-05T16:26:58;7.77;;;4.43;;
3347;SDS011;1687;49.540;8.574;2023-03-05T16:29:24;11.03;;;4.50;;
3347;SDS011;1687;49.540;8.574;2023-03-05T16:31:52;7.13;;;3.07;;
3347;SDS011;1687;49.540;8.574;2023-03-05T16:34:18;13.00;;;4.80;;
3347;SDS011;1687;49.540;8.574;2023-03-05T16:36:48;8.70;;;3.27;;
3347;SDS011;1687;49.540;8.574;2023-03-05T16:39:16;7.60;;;4.67;;
3347;SDS011;1687;49.540;8.574;2023-03-05T16:41:46;6.73;;;3.00;;
3347;SDS011;1687;49.540;8.574;2023-03-05T16:44:12;11.90;;;4.50;;
3347;SDS011;1687;49.540;8.574;2023-03-05T16:46:38;15.27;;;5.67;;
3347;SDS011;1687;49.540;8.574;2023-03-05T16:49:06;8.17;;;3.40;;
3347;SDS011;1687;49.540;8.574;2023-03-05T16:51:32;8.37;;;4.10;;
3347;SDS011;1687;49.540;8.574;2023-03-05T16:53:59;13.00;;;4.70;;
3347;SDS011;1687;49.540;8.574;2023-03-05T16:56:25;11.60;;;4.13;;
3347;SDS011;1687;49.540;8.574;2023-03-05T16:58:52;13.17;;;4.73;;
3347;SDS011;1687;49.540;8.574;2023-03-05T17:01:19;10.40;;;4.97;;
3347;SDS011;1687;49.540;8.574;2023-03-05T17:03:46;11.53;;;5.70;;
3347;SDS011;1687;49.540;8.574;2023-03-05T17:06:20;10.37;;;4.70;;
3347;SDS011;1687;49.540;8.574;2023-03-05T17:08:50;13.67;;;4.67;;
3347;SDS011;1687;49.540;8.574;2023-03-05T17:11:16;12.37;;;4.77;;